createdAt,value
2017-09-28T00:00:00.004Z,13.84
2017-09-28T00:01:08.840Z,13.89
2017-09-28T00:02:17.672Z,13.85
2017-09-28T00:03:26.507Z,13.92
2017-09-28T00:04:35.540Z,13.91
2017-09-28T00:05:44.374Z,13.87
2017-09-28T00:06:53.537Z,13.89
2017-09-28T00:08:02.371Z,13.89
2017-09-28T00:09:11.204Z,13.82
2017-09-28T00:10:20.188Z,13.87
2017-09-28T00:11:29.026Z,13.89
2017-09-28T00:12:37.855Z,13.82
2017-09-28T00:13:46.688Z,13.84
2017-09-28T00:14:55.522Z,13.89
2017-09-28T00:16:04.406Z,13.87
2017-09-28T00:17:13.240Z,13.89
2017-09-28T00:18:22.078Z,14.04
2017-09-28T00:19:30.906Z,13.82
2017-09-28T00:20:39.740Z,13.92
2017-09-28T00:21:48.725Z,13.91
2017-09-28T00:22:57.890Z,13.87
2017-09-28T00:24:06.722Z,13.82
2017-09-28T00:25:15.554Z,13.92
2017-09-28T00:26:24.389Z,13.89
2017-09-28T00:27:33.221Z,13.91
2017-09-28T00:28:42.050Z,13.95
2017-09-28T00:29:50.883Z,13.87
2017-09-28T00:30:59.718Z,13.91
2017-09-28T00:32:08.549Z,13.91
2017-09-28T00:33:17.533Z,13.89
2017-09-28T00:34:26.366Z,13.89
2017-09-28T00:35:35.200Z,13.89
2017-09-28T00:36:44.035Z,13.89
2017-09-28T00:37:52.869Z,13.89
2017-09-28T00:39:01.854Z,13.91
2017-09-28T00:40:10.686Z,13.85
2017-09-28T00:41:19.523Z,13.84
2017-09-28T00:42:28.356Z,13.91
2017-09-28T00:43:37.190Z,13.95
2017-09-28T00:44:46.326Z,13.85
2017-09-28T00:45:55.164Z,13.79
2017-09-28T00:47:03.996Z,13.82
2017-09-28T00:48:12.830Z,13.81
2017-09-28T00:49:21.663Z,13.79
2017-09-28T00:50:30.980Z,13.81
2017-09-28T00:51:39.813Z,13.79
2017-09-28T00:52:48.645Z,13.78
2017-09-28T00:53:57.476Z,13.79
2017-09-28T00:55:06.308Z,13.79
2017-09-28T00:56:15.343Z,13.73
2017-09-28T00:57:24.180Z,13.75
2017-09-28T00:58:33.013Z,13.78
2017-09-28T00:59:41.847Z,13.78
2017-09-28T01:00:50.678Z,13.77
2017-09-28T01:01:59.713Z,13.71
2017-09-28T01:03:08.544Z,13.78
2017-09-28T01:04:17.377Z,13.75
2017-09-28T01:05:26.213Z,13.71
2017-09-28T01:06:35.044Z,13.79
2017-09-28T01:07:44.179Z,13.71
2017-09-28T01:08:53.012Z,13.71
2017-09-28T01:10:01.844Z,13.69
2017-09-28T01:11:10.679Z,13.66
2017-09-28T01:12:19.512Z,13.73
2017-09-28T01:13:28.746Z,13.75
2017-09-28T01:14:37.580Z,13.77
2017-09-28T01:15:46.412Z,13.73
2017-09-28T01:16:55.247Z,13.75
2017-09-28T01:18:04.080Z,13.78
2017-09-28T01:19:12.964Z,13.71
2017-09-28T01:20:21.797Z,13.67
2017-09-28T01:21:30.960Z,13.67
2017-09-28T01:22:39.792Z,13.77
2017-09-28T01:23:48.624Z,13.66
2017-09-28T01:24:57.659Z,13.73
2017-09-28T01:26:06.494Z,13.66
2017-09-28T01:27:15.326Z,13.66
2017-09-28T01:28:24.165Z,13.64
2017-09-28T01:29:32.999Z,13.66
2017-09-28T01:30:41.880Z,13.64
2017-09-28T01:31:50.710Z,13.57
2017-09-28T01:32:59.544Z,13.63
2017-09-28T01:34:08.375Z,13.55
2017-09-28T01:35:17.209Z,13.55
2017-09-28T01:36:26.042Z,13.55
2017-09-28T01:37:34.874Z,13.63
2017-09-28T01:38:43.706Z,13.6
2017-09-28T01:39:52.539Z,13.54
2017-09-28T01:41:01.372Z,13.51
2017-09-28T01:42:10.583Z,13.51
2017-09-28T01:43:19.416Z,13.6
2017-09-28T01:44:28.250Z,13.59
2017-09-28T01:45:37.133Z,13.51
2017-09-28T01:46:45.967Z,13.51
2017-09-28T01:47:55.100Z,13.52
2017-09-28T01:49:03.932Z,13.48
2017-09-28T01:50:12.766Z,13.48
2017-09-28T01:51:21.601Z,13.48
2017-09-28T01:52:30.437Z,13.38
2017-09-28T01:53:39.518Z,13.32
2017-09-28T01:54:48.348Z,13.39
2017-09-28T01:55:57.181Z,13.45
2017-09-28T01:57:06.015Z,13.41
2017-09-28T01:58:14.845Z,13.42
2017-09-28T01:59:23.877Z,13.41
2017-09-28T02:00:32.711Z,13.44
2017-09-28T02:01:41.547Z,13.49
2017-09-28T02:02:50.382Z,13.38
2017-09-28T02:03:59.216Z,13.39
2017-09-28T02:05:08.199Z,13.33
2017-09-28T02:06:17.031Z,13.46
2017-09-28T02:07:25.863Z,13.41
2017-09-28T02:08:34.745Z,13.33
2017-09-28T02:09:43.577Z,13.46
2017-09-28T02:10:52.661Z,13.39
2017-09-28T02:12:01.495Z,13.46
2017-09-28T02:13:10.328Z,13.45
2017-09-28T02:14:19.158Z,13.39
2017-09-28T02:15:27.991Z,13.3
2017-09-28T02:16:36.925Z,13.33
2017-09-28T02:17:45.757Z,13.32
2017-09-28T02:18:54.589Z,13.38
2017-09-28T02:20:03.425Z,13.36
2017-09-28T02:21:12.585Z,13.49
2017-09-28T02:22:21.670Z,13.46
2017-09-28T02:23:30.505Z,13.42
2017-09-28T02:24:39.340Z,13.48
2017-09-28T02:25:48.173Z,13.46
2017-09-28T02:26:57.007Z,13.49
2017-09-28T02:28:05.892Z,13.45
2017-09-28T02:29:14.725Z,13.48
2017-09-28T02:30:23.559Z,13.51
2017-09-28T02:31:32.393Z,13.52
2017-09-28T02:32:41.225Z,13.51
2017-09-28T02:33:50.109Z,13.48
2017-09-28T02:34:58.945Z,13.51
2017-09-28T02:36:07.778Z,13.51
2017-09-28T02:37:16.940Z,13.52
2017-09-28T02:38:25.772Z,13.46
2017-09-28T02:39:34.755Z,13.54
2017-09-28T02:40:43.589Z,13.51
2017-09-28T02:41:52.420Z,13.57
2017-09-28T02:43:01.254Z,13.46
2017-09-28T02:44:10.088Z,13.44
2017-09-28T02:45:18.972Z,13.48
2017-09-28T02:46:27.807Z,13.51
2017-09-28T02:47:36.970Z,13.46
2017-09-28T02:48:45.803Z,13.57
2017-09-28T02:49:54.639Z,13.48
2017-09-28T02:51:03.471Z,13.59
2017-09-28T02:52:12.308Z,13.62
2017-09-28T02:53:21.142Z,13.6
2017-09-28T02:54:30.316Z,13.51
2017-09-28T02:55:39.154Z,13.59
2017-09-28T02:56:48.035Z,13.49
2017-09-28T02:57:56.869Z,13.46
2017-09-28T02:59:06.028Z,13.48
2017-09-28T03:00:14.860Z,13.49
2017-09-28T03:01:23.693Z,13.42
2017-09-28T03:02:32.528Z,13.48
2017-09-28T03:03:41.360Z,13.45
2017-09-28T03:04:50.193Z,13.48
2017-09-28T03:05:59.025Z,13.49
2017-09-28T03:07:07.858Z,13.46
2017-09-28T03:08:16.743Z,13.51
2017-09-28T03:09:25.914Z,13.49
2017-09-28T03:10:34.749Z,13.48
2017-09-28T03:11:43.582Z,13.49
2017-09-28T03:12:52.415Z,13.45
2017-09-28T03:14:01.350Z,13.44
2017-09-28T03:15:10.184Z,13.51
2017-09-28T03:16:19.017Z,13.48
2017-09-28T03:17:27.848Z,13.45
2017-09-28T03:18:36.681Z,13.45
2017-09-28T03:19:45.615Z,13.46
2017-09-28T03:20:54.447Z,13.49
2017-09-28T03:22:03.287Z,13.45
2017-09-28T03:23:12.121Z,13.52
2017-09-28T03:24:20.953Z,13.42
2017-09-28T03:25:30.093Z,13.52
2017-09-28T03:26:38.925Z,13.49
2017-09-28T03:27:47.757Z,13.46
2017-09-28T03:28:56.591Z,13.48
2017-09-28T03:30:05.424Z,13.38
2017-09-28T03:31:14.555Z,13.45
2017-09-28T03:32:23.387Z,13.38
2017-09-28T03:33:32.219Z,13.48
2017-09-28T03:34:41.051Z,13.44
2017-09-28T03:35:50.215Z,13.52
2017-09-28T03:36:59.149Z,13.52
2017-09-28T03:38:07.979Z,13.49
2017-09-28T03:39:16.809Z,13.42
2017-09-28T03:40:25.643Z,13.52
2017-09-28T03:41:34.476Z,13.48
2017-09-28T03:42:43.458Z,13.51
2017-09-28T03:43:52.292Z,13.45
2017-09-28T03:45:01.127Z,13.52
2017-09-28T03:46:09.960Z,13.44
2017-09-28T03:47:18.794Z,13.48
2017-09-28T03:48:27.678Z,13.48
2017-09-28T03:49:36.510Z,13.48
2017-09-28T03:50:45.340Z,13.49
2017-09-28T03:51:54.167Z,13.48
2017-09-28T03:53:03.001Z,13.45
2017-09-28T03:54:12.136Z,13.51
2017-09-28T03:55:20.968Z,13.42
2017-09-28T03:56:29.803Z,13.45
2017-09-28T03:57:38.636Z,13.46
2017-09-28T03:58:47.467Z,13.51
2017-09-28T03:59:56.451Z,13.45
2017-09-28T04:01:05.283Z,13.48
2017-09-28T04:02:14.112Z,13.45
2017-09-28T04:03:22.945Z,13.45
2017-09-28T04:04:31.776Z,13.42
2017-09-28T04:05:40.661Z,13.49
2017-09-28T04:06:49.493Z,13.51
2017-09-28T04:07:58.328Z,13.51
2017-09-28T04:09:07.163Z,13.46
2017-09-28T04:10:15.994Z,13.45
2017-09-28T04:11:24.876Z,13.42
2017-09-28T04:12:33.711Z,13.44
2017-09-28T04:13:42.546Z,13.38
2017-09-28T04:14:51.379Z,13.32
2017-09-28T04:16:00.214Z,13.39
2017-09-28T04:17:09.247Z,13.48
2017-09-28T04:18:18.081Z,13.49
2017-09-28T04:19:26.915Z,13.46
2017-09-28T04:20:35.748Z,13.45
2017-09-28T04:21:44.958Z,13.49
2017-09-28T04:22:53.943Z,13.49
2017-09-28T04:24:02.773Z,13.42
2017-09-28T04:25:11.605Z,13.48
2017-09-28T04:26:20.438Z,13.42
2017-09-28T04:27:29.272Z,13.49
2017-09-28T04:28:38.258Z,13.48
2017-09-28T04:29:47.093Z,13.44
2017-09-28T04:30:55.927Z,13.48
2017-09-28T04:32:04.764Z,13.49
2017-09-28T04:33:13.597Z,13.51
2017-09-28T04:34:22.431Z,13.49
2017-09-28T04:35:31.948Z,13.48
2017-09-28T04:36:40.781Z,13.48
2017-09-28T04:37:49.613Z,13.42
2017-09-28T04:38:58.448Z,13.48
2017-09-28T04:40:07.280Z,13.45
2017-09-28T04:41:16.113Z,13.48
2017-09-28T04:42:24.946Z,13.46
2017-09-28T04:43:33.778Z,13.44
2017-09-28T04:44:42.614Z,13.49
2017-09-28T04:45:51.445Z,13.42
2017-09-28T04:47:00.277Z,13.42
2017-09-28T04:48:09.110Z,13.49
2017-09-28T04:49:17.944Z,13.45
2017-09-28T04:50:26.776Z,13.54
2017-09-28T04:51:35.608Z,13.55
2017-09-28T04:52:44.442Z,13.42
2017-09-28T04:53:53.274Z,13.59
2017-09-28T04:55:02.107Z,13.48
2017-09-28T04:56:10.942Z,13.51
2017-09-28T04:57:19.774Z,13.52
2017-09-28T04:58:28.608Z,13.51
2017-09-28T04:59:37.445Z,13.51
2017-09-28T05:00:46.279Z,13.49
2017-09-28T05:01:55.110Z,13.39
2017-09-28T05:03:03.946Z,13.44
2017-09-28T05:04:13.118Z,13.57
2017-09-28T05:05:22.167Z,13.41
2017-09-28T05:06:31.020Z,13.48
2017-09-28T05:07:39.854Z,13.49
2017-09-28T05:08:48.698Z,13.48
2017-09-28T05:09:58.196Z,13.52
2017-09-28T05:11:07.137Z,13.49
2017-09-28T05:12:16.019Z,13.41
2017-09-28T05:13:24.851Z,13.49
2017-09-28T05:14:33.685Z,13.49
2017-09-28T05:15:42.521Z,13.62
2017-09-28T05:16:51.737Z,13.41
2017-09-28T05:18:00.570Z,13.44
2017-09-28T05:19:09.405Z,13.38
2017-09-28T05:20:18.238Z,13.45
2017-09-28T05:21:27.071Z,13.48
2017-09-28T05:22:36.105Z,13.48
2017-09-28T05:23:45.047Z,13.48
2017-09-28T05:24:54.079Z,13.46
2017-09-28T05:26:02.911Z,13.52
2017-09-28T05:27:11.752Z,13.62
2017-09-28T05:28:20.736Z,13.51
2017-09-28T05:29:29.570Z,13.48
2017-09-28T05:30:38.405Z,13.55
2017-09-28T05:31:47.241Z,13.49
2017-09-28T05:32:56.072Z,13.51
2017-09-28T05:34:05.103Z,13.63
2017-09-28T05:35:14.270Z,13.48
2017-09-28T05:36:23.104Z,13.48
2017-09-28T05:37:31.938Z,13.49
2017-09-28T05:38:40.773Z,13.49
2017-09-28T05:39:49.739Z,13.48
2017-09-28T05:40:58.652Z,13.52
2017-09-28T05:42:07.625Z,13.51
2017-09-28T05:43:16.564Z,13.54
2017-09-28T05:44:25.450Z,13.62
2017-09-28T05:45:34.434Z,13.52
2017-09-28T05:46:43.273Z,13.54
2017-09-28T05:47:52.104Z,13.57
2017-09-28T05:49:00.939Z,13.64
2017-09-28T05:50:09.772Z,13.63
2017-09-28T05:51:19.086Z,13.66
2017-09-28T05:52:27.916Z,13.64
2017-09-28T05:53:36.749Z,13.64
2017-09-28T05:54:45.583Z,13.71
2017-09-28T05:55:54.418Z,13.63
2017-09-28T05:57:03.248Z,13.64
2017-09-28T05:58:12.082Z,13.64
2017-09-28T05:59:20.918Z,13.64
2017-09-28T06:00:29.750Z,13.66
2017-09-28T06:01:38.584Z,13.75
2017-09-28T06:02:47.417Z,13.7
2017-09-28T06:03:56.249Z,13.73
2017-09-28T06:05:05.082Z,13.69
2017-09-28T06:06:14.252Z,13.66
2017-09-28T06:07:23.085Z,13.75
2017-09-28T06:08:31.921Z,13.73
2017-09-28T06:09:40.756Z,13.75
2017-09-28T06:10:49.590Z,13.71
2017-09-28T06:11:58.422Z,13.79
2017-09-28T06:13:07.257Z,13.73
2017-09-28T06:14:16.090Z,13.77
2017-09-28T06:15:24.925Z,13.69
2017-09-28T06:16:33.758Z,13.64
2017-09-28T06:17:42.593Z,13.64
2017-09-28T06:18:51.430Z,13.69
2017-09-28T06:20:00.263Z,13.75
2017-09-28T06:21:09.098Z,13.71
2017-09-28T06:22:18.078Z,13.66
2017-09-28T06:23:26.913Z,13.64
2017-09-28T06:24:36.079Z,13.63
2017-09-28T06:25:44.913Z,13.66
2017-09-28T06:26:53.748Z,13.62
2017-09-28T06:28:02.688Z,13.49
2017-09-28T06:29:11.519Z,13.52
2017-09-28T06:30:20.357Z,13.66
2017-09-28T06:31:29.188Z,13.63
2017-09-28T06:32:38.020Z,13.66
2017-09-28T06:33:46.955Z,13.64
2017-09-28T06:34:55.790Z,13.67
2017-09-28T06:36:04.626Z,13.66
2017-09-28T06:37:13.460Z,13.63
2017-09-28T06:38:22.961Z,13.63
2017-09-28T06:39:31.945Z,13.67
2017-09-28T06:40:40.780Z,13.67
2017-09-28T06:41:49.625Z,13.73
2017-09-28T06:42:58.455Z,13.71
2017-09-28T06:44:07.289Z,13.75
2017-09-28T06:45:16.174Z,13.71
2017-09-28T06:46:25.007Z,13.71
2017-09-28T06:47:33.841Z,13.73
2017-09-28T06:48:42.676Z,13.71
2017-09-28T06:49:51.511Z,13.71
2017-09-28T06:51:00.925Z,13.77
2017-09-28T06:52:09.759Z,13.78
2017-09-28T06:53:18.600Z,13.77
2017-09-28T06:54:27.435Z,13.7
2017-09-28T06:55:36.268Z,13.79
2017-09-28T06:56:45.404Z,13.77
2017-09-28T06:57:54.240Z,13.78
2017-09-28T06:59:03.074Z,13.77
2017-09-28T07:00:11.908Z,13.79
2017-09-28T07:01:20.742Z,13.79
2017-09-28T07:02:29.728Z,13.73
2017-09-28T07:03:38.562Z,13.75
2017-09-28T07:04:47.417Z,13.78
2017-09-28T07:05:56.282Z,13.81
2017-09-28T07:07:05.118Z,13.77
2017-09-28T07:08:14.010Z,13.82
2017-09-28T07:09:22.916Z,13.89
2017-09-28T07:10:31.785Z,13.92
2017-09-28T07:11:40.662Z,13.92
2017-09-28T07:12:49.508Z,13.95
2017-09-28T07:13:58.411Z,13.92
2017-09-28T07:15:07.248Z,13.96
2017-09-28T07:16:16.088Z,13.92
2017-09-28T07:17:25.298Z,13.96
2017-09-28T07:18:34.132Z,13.96
2017-09-28T07:19:42.966Z,13.91
2017-09-28T07:20:51.799Z,13.99
2017-09-28T07:22:00.630Z,13.99
2017-09-28T07:23:09.467Z,14.04
2017-09-28T07:24:18.300Z,14.03
2017-09-28T07:25:27.334Z,13.92
2017-09-28T07:26:36.169Z,13.88
2017-09-28T07:27:45.005Z,13.88
2017-09-28T07:28:53.839Z,14
2017-09-28T07:30:02.687Z,13.96
2017-09-28T07:31:11.919Z,13.95
2017-09-28T07:32:20.755Z,13.99
2017-09-28T07:33:29.610Z,14
2017-09-28T07:34:38.805Z,14
2017-09-28T07:35:47.645Z,14.07
2017-09-28T07:36:56.531Z,14
2017-09-28T07:38:05.366Z,14.04
2017-09-28T07:39:14.201Z,14
2017-09-28T07:40:23.043Z,14
2017-09-28T07:41:32.037Z,14.04
2017-09-28T07:42:41.007Z,14.04
2017-09-28T07:43:49.810Z,14.12
2017-09-28T07:44:58.646Z,14
2017-09-28T07:46:07.815Z,14.04
2017-09-28T07:47:16.981Z,14.07
2017-09-28T07:48:25.917Z,14.02
2017-09-28T07:49:34.753Z,14.06
2017-09-28T07:50:43.588Z,14.07
2017-09-28T07:51:52.423Z,14.1
2017-09-28T07:53:01.258Z,14.14
2017-09-28T07:54:10.192Z,14.21
2017-09-28T07:55:19.027Z,14.15
2017-09-28T07:56:27.860Z,14.24
2017-09-28T07:57:36.698Z,14.18
2017-09-28T07:58:45.529Z,14.15
2017-09-28T07:59:54.360Z,14.18
2017-09-28T08:01:03.196Z,14.15
2017-09-28T08:02:12.032Z,14.17
2017-09-28T08:03:20.868Z,14.22
2017-09-28T08:04:29.704Z,14.15
2017-09-28T08:05:38.589Z,14.18
2017-09-28T08:06:47.425Z,14.2
2017-09-28T08:07:56.281Z,14.21
2017-09-28T08:09:05.149Z,14.21
2017-09-28T08:10:13.983Z,14.24
2017-09-28T08:11:22.869Z,14.25
2017-09-28T08:12:32.081Z,14.28
2017-09-28T08:13:40.899Z,14.27
2017-09-28T08:14:49.735Z,14.32
2017-09-28T08:15:58.569Z,14.46
2017-09-28T08:17:07.711Z,14.5
2017-09-28T08:18:16.542Z,14.28
2017-09-28T08:19:25.376Z,14.33
2017-09-28T08:20:34.210Z,14.37
2017-09-28T08:21:43.043Z,14.33
2017-09-28T08:22:52.180Z,14.32
2017-09-28T08:24:01.016Z,14.37
2017-09-28T08:25:10.188Z,14.46
2017-09-28T08:26:19.022Z,14.47
2017-09-28T08:27:27.855Z,14.46
2017-09-28T08:28:36.740Z,14.42
2017-09-28T08:29:45.577Z,14.5
2017-09-28T08:30:54.409Z,14.52
2017-09-28T08:32:03.245Z,14.52
2017-09-28T08:33:12.086Z,14.54
2017-09-28T08:34:20.933Z,14.57
2017-09-28T08:35:29.778Z,14.46
2017-09-28T08:36:38.948Z,14.5
2017-09-28T08:37:48.121Z,14.58
2017-09-28T08:38:56.955Z,14.54
2017-09-28T08:40:06.525Z,14.58
2017-09-28T08:41:15.367Z,14.62
2017-09-28T08:42:24.198Z,14.6
2017-09-28T08:43:33.031Z,14.57
2017-09-28T08:44:41.867Z,14.61
2017-09-28T08:45:50.752Z,14.52
2017-09-28T08:46:59.584Z,14.73
2017-09-28T08:48:08.431Z,14.73
2017-09-28T08:49:17.268Z,14.61
2017-09-28T08:50:26.109Z,14.64
2017-09-28T08:51:35.141Z,14.6
2017-09-28T08:52:43.977Z,14.65
2017-09-28T08:53:52.812Z,14.54
2017-09-28T08:55:01.646Z,14.65
2017-09-28T08:56:10.480Z,14.68
2017-09-28T08:57:19.414Z,14.78
2017-09-28T08:58:28.246Z,14.69
2017-09-28T08:59:37.082Z,14.73
2017-09-28T09:00:45.924Z,14.72
2017-09-28T09:01:54.754Z,14.69
2017-09-28T09:03:03.692Z,14.75
2017-09-28T09:04:12.528Z,14.78
2017-09-28T09:05:21.363Z,14.73
2017-09-28T09:06:30.197Z,14.8
2017-09-28T09:07:39.036Z,14.88
2017-09-28T09:08:47.869Z,14.94
2017-09-28T09:09:56.706Z,14.94
2017-09-28T09:11:05.549Z,15.01
2017-09-28T09:12:14.382Z,14.98
2017-09-28T09:13:23.218Z,14.95
2017-09-28T09:14:32.369Z,14.99
2017-09-28T09:15:41.257Z,14.98
2017-09-28T09:16:50.090Z,14.98
2017-09-28T09:17:58.924Z,15.03
2017-09-28T09:19:08.096Z,15.07
2017-09-28T09:20:17.415Z,15.09
2017-09-28T09:21:26.251Z,15.07
2017-09-28T09:22:35.422Z,15.07
2017-09-28T09:23:44.258Z,15.01
2017-09-28T09:24:53.101Z,15.03
2017-09-28T09:26:02.230Z,15.1
2017-09-28T09:27:11.066Z,15.09
2017-09-28T09:28:19.902Z,15.09
2017-09-28T09:29:28.735Z,15.14
2017-09-28T09:30:37.569Z,15.11
2017-09-28T09:31:46.555Z,15.19
2017-09-28T09:32:55.728Z,15.13
2017-09-28T09:34:04.563Z,15.19
2017-09-28T09:35:13.396Z,15.11
2017-09-28T09:36:22.231Z,15.25
2017-09-28T09:37:31.118Z,15.34
2017-09-28T09:38:39.953Z,15.29
2017-09-28T09:39:48.786Z,15.28
2017-09-28T09:40:57.629Z,15.21
2017-09-28T09:42:06.462Z,15.27
2017-09-28T09:43:15.500Z,15.32
2017-09-28T09:44:24.334Z,15.21
2017-09-28T09:45:33.171Z,15.19
2017-09-28T09:46:42.013Z,15.27
2017-09-28T09:47:50.852Z,15.25
2017-09-28T09:48:59.737Z,15.23
2017-09-28T09:50:08.574Z,15.21
2017-09-28T09:51:17.410Z,15.27
2017-09-28T09:52:26.245Z,15.25
2017-09-28T09:53:35.082Z,15.25
2017-09-28T09:54:44.067Z,15.27
2017-09-28T09:55:52.906Z,15.21
2017-09-28T09:57:01.741Z,15.29
2017-09-28T09:58:10.577Z,15.25
2017-09-28T09:59:19.414Z,15.21
2017-09-28T10:00:28.301Z,15.28
2017-09-28T10:01:37.471Z,15.27
2017-09-28T10:02:46.308Z,15.31
2017-09-28T10:03:55.145Z,15.39
2017-09-28T10:05:03.982Z,15.44
2017-09-28T10:06:12.916Z,15.41
2017-09-28T10:07:21.750Z,15.43
2017-09-28T10:08:30.585Z,15.44
2017-09-28T10:09:39.420Z,15.36
2017-09-28T10:10:48.254Z,15.41
2017-09-28T10:11:57.241Z,15.38
2017-09-28T10:13:06.427Z,15.49
2017-09-28T10:14:15.262Z,15.47
2017-09-28T10:15:24.100Z,15.41
2017-09-28T10:16:32.935Z,15.53
2017-09-28T10:17:41.770Z,15.39
2017-09-28T10:18:50.606Z,15.49
2017-09-28T10:19:59.442Z,15.39
2017-09-28T10:21:08.277Z,15.51
2017-09-28T10:22:17.112Z,15.57
2017-09-28T10:23:26.098Z,15.54
2017-09-28T10:24:34.933Z,15.59
2017-09-28T10:25:44.101Z,15.56
2017-09-28T10:26:53.277Z,15.56
2017-09-28T10:28:02.113Z,15.64
2017-09-28T10:29:10.947Z,15.67
2017-09-28T10:30:19.780Z,15.62
2017-09-28T10:31:28.615Z,15.65
2017-09-28T10:32:37.452Z,15.59
2017-09-28T10:33:46.287Z,15.59
2017-09-28T10:34:55.276Z,15.65
2017-09-28T10:36:04.113Z,15.67
2017-09-28T10:37:12.950Z,15.62
2017-09-28T10:38:21.784Z,15.62
2017-09-28T10:39:30.623Z,15.59
2017-09-28T10:40:39.756Z,15.56
2017-09-28T10:41:48.596Z,15.56
2017-09-28T10:42:57.430Z,15.57
2017-09-28T10:44:06.264Z,15.54
2017-09-28T10:45:15.100Z,15.57
2017-09-28T10:46:24.089Z,15.65
2017-09-28T10:47:32.925Z,15.56
2017-09-28T10:48:41.763Z,15.71
2017-09-28T10:49:50.593Z,15.62
2017-09-28T10:50:59.428Z,15.71
2017-09-28T10:52:08.515Z,15.67
2017-09-28T10:53:17.349Z,15.69
2017-09-28T10:54:26.186Z,15.65
2017-09-28T10:55:35.021Z,15.64
2017-09-28T10:56:43.857Z,15.76
2017-09-28T10:57:52.794Z,15.8
2017-09-28T10:59:01.630Z,15.82
2017-09-28T11:00:10.465Z,15.74
2017-09-28T11:01:19.299Z,15.65
2017-09-28T11:02:28.134Z,15.68
2017-09-28T11:03:37.069Z,15.68
2017-09-28T11:04:45.903Z,15.72
2017-09-28T11:05:54.739Z,15.72
2017-09-28T11:07:03.577Z,15.83
2017-09-28T11:08:12.414Z,15.82
2017-09-28T11:09:21.452Z,15.86
2017-09-28T11:10:30.287Z,15.84
2017-09-28T11:11:39.123Z,15.86
2017-09-28T11:12:47.958Z,15.86
2017-09-28T11:13:56.795Z,15.89
2017-09-28T11:15:05.931Z,15.93
2017-09-28T11:16:14.767Z,15.97
2017-09-28T11:17:23.601Z,15.97
2017-09-28T11:18:32.436Z,15.97
2017-09-28T11:19:41.272Z,16.01
2017-09-28T11:20:50.307Z,16.02
2017-09-28T11:21:59.143Z,16.01
2017-09-28T11:23:07.982Z,15.97
2017-09-28T11:24:16.819Z,15.94
2017-09-28T11:25:25.655Z,16.08
2017-09-28T11:26:34.543Z,16.11
2017-09-28T11:27:43.376Z,16.11
2017-09-28T11:28:52.214Z,16.09
2017-09-28T11:30:01.052Z,16.05
2017-09-28T11:31:09.890Z,16
2017-09-28T11:32:18.775Z,15.94
2017-09-28T11:33:27.611Z,16
2017-09-28T11:34:36.445Z,15.89
2017-09-28T11:35:45.280Z,16
2017-09-28T11:36:54.116Z,15.93
2017-09-28T11:38:03.053Z,15.94
2017-09-28T11:39:11.891Z,15.89
2017-09-28T11:40:20.728Z,15.92
2017-09-28T11:41:29.565Z,15.94
2017-09-28T11:42:38.397Z,16.05
2017-09-28T11:43:47.280Z,15.94
2017-09-28T11:44:56.116Z,15.96
2017-09-28T11:46:04.953Z,15.93
2017-09-28T11:47:13.789Z,15.96
2017-09-28T11:48:22.626Z,16.01
2017-09-28T11:49:31.713Z,15.96
2017-09-28T11:50:40.550Z,15.93
2017-09-28T11:51:49.388Z,16.05
2017-09-28T11:52:58.224Z,16.02
2017-09-28T11:54:07.390Z,16.08
2017-09-28T11:55:16.275Z,16.02
2017-09-28T11:56:25.110Z,16.02
2017-09-28T11:57:33.945Z,16.07
2017-09-28T11:58:42.780Z,16.08
2017-09-28T11:59:51.624Z,16.07
2017-09-28T12:01:00.752Z,16.12
2017-09-28T12:02:09.586Z,16.14
2017-09-28T12:03:18.423Z,16.21
2017-09-28T12:04:27.258Z,16.24
2017-09-28T12:05:36.095Z,16.33
2017-09-28T12:06:45.182Z,16.34
2017-09-28T12:07:54.018Z,16.41
2017-09-28T12:09:02.905Z,16.39
2017-09-28T12:10:11.747Z,16.45
2017-09-28T12:11:20.584Z,16.52
2017-09-28T12:12:29.822Z,16.52
2017-09-28T12:13:38.659Z,16.5
2017-09-28T12:14:47.495Z,16.43
2017-09-28T12:15:56.700Z,16.46
2017-09-28T12:17:05.537Z,16.34
2017-09-28T12:18:14.374Z,16.42
2017-09-28T12:19:23.212Z,16.46
2017-09-28T12:20:32.049Z,16.48
2017-09-28T12:21:40.888Z,16.45
2017-09-28T12:22:49.724Z,16.46
2017-09-28T12:23:58.612Z,16.35
2017-09-28T12:25:07.449Z,16.43
2017-09-28T12:26:16.288Z,16.43
2017-09-28T12:27:25.122Z,16.48
2017-09-28T12:28:34.289Z,16.52
2017-09-28T12:29:43.427Z,16.49
2017-09-28T12:30:52.263Z,16.42
2017-09-28T12:32:01.100Z,16.52
2017-09-28T12:33:09.935Z,16.46
2017-09-28T12:34:18.805Z,16.39
2017-09-28T12:35:28.041Z,16.39
2017-09-28T12:36:36.876Z,16.35
2017-09-28T12:37:45.711Z,16.38
2017-09-28T12:38:54.548Z,16.33
2017-09-28T12:40:03.386Z,16.43
2017-09-28T12:41:12.218Z,16.34
2017-09-28T12:42:21.052Z,16.42
2017-09-28T12:43:29.891Z,16.42
2017-09-28T12:44:39.059Z,16.35
2017-09-28T12:45:48.225Z,16.38
2017-09-28T12:46:57.261Z,16.34
2017-09-28T12:48:06.096Z,16.39
2017-09-28T12:49:14.930Z,16.41
2017-09-28T12:50:23.764Z,16.41
2017-09-28T12:51:32.599Z,16.42
2017-09-28T12:52:41.736Z,16.42
2017-09-28T12:53:50.586Z,16.53
2017-09-28T12:54:59.421Z,16.43
2017-09-28T12:56:08.259Z,16.43
2017-09-28T12:57:17.431Z,16.52
2017-09-28T12:58:26.321Z,16.46
2017-09-28T12:59:35.158Z,16.56
2017-09-28T13:00:44.018Z,16.56
2017-09-28T13:01:52.852Z,16.58
2017-09-28T13:03:01.689Z,16.61
2017-09-28T13:04:10.867Z,16.6
2017-09-28T13:05:19.708Z,16.67
2017-09-28T13:06:28.545Z,16.6
2017-09-28T13:07:37.380Z,16.6
2017-09-28T13:08:46.240Z,16.61
2017-09-28T13:09:55.054Z,16.66
2017-09-28T13:11:03.892Z,16.61
2017-09-28T13:12:12.731Z,16.7
2017-09-28T13:13:21.568Z,16.66
2017-09-28T13:14:30.405Z,16.75
2017-09-28T13:15:39.243Z,16.7
2017-09-28T13:16:48.078Z,16.75
2017-09-28T13:17:56.917Z,16.7
2017-09-28T13:19:05.753Z,16.67
2017-09-28T13:20:14.588Z,16.75
2017-09-28T13:21:23.763Z,16.71
2017-09-28T13:22:32.594Z,16.76
2017-09-28T13:23:41.434Z,16.73
2017-09-28T13:24:50.295Z,16.79
2017-09-28T13:25:59.156Z,16.78
2017-09-28T13:27:07.998Z,16.83
2017-09-28T13:28:16.830Z,16.82
2017-09-28T13:29:25.968Z,16.89
2017-09-28T13:30:34.803Z,16.88
2017-09-28T13:31:43.645Z,16.82
2017-09-28T13:32:52.514Z,16.88
2017-09-28T13:34:01.353Z,16.85
2017-09-28T13:35:10.391Z,16.91
2017-09-28T13:36:19.227Z,16.94
2017-09-28T13:37:28.066Z,16.96
2017-09-28T13:38:36.942Z,16.94
2017-09-28T13:39:45.779Z,16.94
2017-09-28T13:40:54.718Z,16.97
2017-09-28T13:42:03.553Z,16.89
2017-09-28T13:43:12.391Z,16.93
2017-09-28T13:44:21.227Z,16.97
2017-09-28T13:45:30.065Z,17
2017-09-28T13:46:39.008Z,16.94
2017-09-28T13:47:47.854Z,16.88
2017-09-28T13:48:56.696Z,16.94
2017-09-28T13:50:05.531Z,16.97
2017-09-28T13:51:14.371Z,16.89
2017-09-28T13:52:23.307Z,16.88
2017-09-28T13:53:32.145Z,17.01
2017-09-28T13:54:40.983Z,16.96
2017-09-28T13:55:50.154Z,16.93
2017-09-28T13:56:58.990Z,16.97
2017-09-28T13:58:08.094Z,16.89
2017-09-28T13:59:16.930Z,16.88
2017-09-28T14:00:25.764Z,16.91
2017-09-28T14:01:34.598Z,16.98
2017-09-28T14:02:43.433Z,17.06
2017-09-28T14:03:52.569Z,17.08
2017-09-28T14:05:01.404Z,16.96
2017-09-28T14:06:10.242Z,16.97
2017-09-28T14:07:19.414Z,17.08
2017-09-28T14:08:28.249Z,16.94
2017-09-28T14:09:37.385Z,16.97
2017-09-28T14:10:46.223Z,17
2017-09-28T14:11:55.061Z,17.01
2017-09-28T14:13:03.899Z,16.97
2017-09-28T14:14:12.736Z,17.01
2017-09-28T14:15:21.624Z,16.88
2017-09-28T14:16:30.463Z,16.94
2017-09-28T14:17:39.300Z,16.93
2017-09-28T14:18:48.137Z,16.97
2017-09-28T14:19:57.305Z,16.98
2017-09-28T14:21:06.244Z,16.96
2017-09-28T14:22:15.082Z,16.96
2017-09-28T14:23:23.918Z,16.89
2017-09-28T14:24:32.756Z,16.88
2017-09-28T14:25:41.593Z,16.97
2017-09-28T14:26:50.580Z,16.97
2017-09-28T14:27:59.418Z,16.98
2017-09-28T14:29:08.252Z,16.94
2017-09-28T14:30:17.090Z,16.86
2017-09-28T14:31:26.263Z,16.89
2017-09-28T14:32:35.203Z,16.93
2017-09-28T14:33:44.045Z,17.06
2017-09-28T14:34:52.880Z,17.01
2017-09-28T14:36:01.719Z,16.97
2017-09-28T14:37:10.573Z,16.98
2017-09-28T14:38:19.410Z,17
2017-09-28T14:39:28.247Z,17.01
2017-09-28T14:40:37.185Z,17
2017-09-28T14:41:46.031Z,17.03
2017-09-28T14:42:54.864Z,16.91
2017-09-28T14:44:04.183Z,16.89
2017-09-28T14:45:13.020Z,16.93
2017-09-28T14:46:21.857Z,16.93
2017-09-28T14:47:30.692Z,16.88
2017-09-28T14:48:39.527Z,16.88